Time;durP1;ratioP1;P1;durP2;ratioP2;P2;SDS_P1;SDS_P2;PMS_P1;PMS_P2;Temp;Humidity;BMP_temperature;BMP_pressure;BME280_temperature;BME280_humidity;BME280_pressure;Samples;Min_cycle;Max_cycle;Signal;HPM_P1;HPM_P2
2022/03/14 00:01:14;;;;;;;21.73;12.65;;;9.50;72.20;;;;;;4999019;28;20030;-77
2022/03/14 00:03:50;;;;;;;18.90;11.48;;;9.50;72.20;;;;;;4981766;28;20030;-75
2022/03/14 00:06:16;;;;;;;20.35;12.10;;;9.60;72.30;;;;;;5009484;23;20042;-76
2022/03/14 00:08:44;;;;;;;20.33;12.27;;;9.70;72.20;;;;;;4995474;28;20033;-75
2022/03/14 00:11:10;;;;;;;21.60;12.00;;;9.70;71.90;;;;;;4995689;28;20019;-75
2022/03/14 00:13:37;;;;;;;20.02;11.40;;;9.80;71.90;;;;;;4995326;28;20054;-75
2022/03/14 00:16:03;;;;;;;17.38;11.43;;;9.80;71.90;;;;;;4995612;28;20101;-75
2022/03/14 00:18:30;;;;;;;19.80;12.15;;;9.80;72.20;;;;;;4994947;28;20100;-74
2022/03/14 00:20:55;;;;;;;19.33;12.10;;;9.90;72.10;;;;;;4997280;28;20026;-75
2022/03/14 00:23:21;;;;;;;19.52;12.65;;;9.90;72.50;;;;;;4982020;28;20034;-75
2022/03/14 00:25:48;;;;;;;18.27;11.82;;;9.90;72.60;;;;;;5001437;28;20060;-75
2022/03/14 00:28:13;;;;;;;20.85;11.45;;;9.90;72.30;;;;;;4984363;28;20026;-75
2022/03/14 00:30:39;;;;;;;21.35;12.68;;;9.90;72.20;;;;;;4999366;28;20026;-76
2022/03/14 00:33:05;;;;;;;19.88;11.73;;;9.90;72.60;;;;;;4998435;28;20026;-76
2022/03/14 00:35:30;;;;;;;19.33;11.80;;;9.90;72.80;;;;;;4981001;28;20034;-75
2022/03/14 00:37:56;;;;;;;19.40;11.60;;;9.90;73.50;;;;;;4999029;28;20049;-75
2022/03/14 00:40:21;;;;;;;21.02;13.30;;;9.90;74.60;;;;;;4997990;28;20018;-76
2022/03/14 00:42:48;;;;;;;20.00;11.60;;;9.90;74.50;;;;;;4983139;28;20023;-75
2022/03/14 00:45:14;;;;;;;21.33;12.18;;;9.90;74.60;;;;;;5003244;28;20033;-75
2022/03/14 00:47:40;;;;;;;20.33;11.65;;;9.90;74.40;;;;;;5020122;28;20214;-77
2022/03/14 00:50:06;;;;;;;20.73;11.98;;;9.90;75.00;;;;;;5018588;28;20521;-77
2022/03/14 00:52:32;;;;;;;19.38;12.15;;;9.90;73.90;;;;;;5018164;28;20033;-77
2022/03/14 00:54:58;;;;;;;21.23;12.40;;;10.00;72.90;;;;;;5001088;28;20038;-76
2022/03/14 00:57:23;;;;;;;20.65;12.93;;;10.00;71.30;;;;;;5015952;28;20026;-76
2022/03/14 00:59:49;;;;;;;20.02;12.18;;;10.10;71.60;;;;;;5015602;28;20021;-76
2022/03/14 01:02:14;;;;;;;20.02;11.60;;;10.10;71.40;;;;;;4997718;28;20033;-75
2022/03/14 01:04:40;;;;;;;21.25;11.60;;;10.00;71.70;;;;;;5014438;28;20038;-76
2022/03/14 01:07:06;;;;;;;21.90;12.43;;;10.00;72.20;;;;;;5013914;28;20544;-76
2022/03/14 01:09:32;;;;;;;22.52;11.13;;;10.00;72.80;;;;;;5013497;28;20029;-76
2022/03/14 01:11:58;;;;;;;19.75;11.88;;;10.00;73.80;;;;;;5013274;28;20079;-76
2022/03/14 01:14:25;;;;;;;21.73;12.02;;;9.90;74.60;;;;;;5013669;28;20381;-77
2022/03/14 01:16:51;;;;;;;17.42;10.98;;;9.90;75.60;;;;;;5013228;28;20054;-76
2022/03/14 01:19:17;;;;;;;20.05;12.05;;;9.90;77.20;;;;;;4995293;28;20121;-76
2022/03/14 01:21:43;;;;;;;24.35;11.75;;;9.80;80.10;;;;;;4995067;28;20057;-76
2022/03/14 01:24:08;;;;;;;17.70;10.70;;;9.70;80.60;;;;;;4994895;28;20034;-76
2022/03/14 01:26:34;;;;;;;17.60;10.88;;;9.70;80.50;;;;;;4995183;28;20485;-75
2022/03/14 01:29:03;;;;;;;19.65;11.65;;;9.70;84.80;;;;;;5012606;28;20497;-74
2022/03/14 01:31:29;;;;;;;21.65;12.15;;;9.60;90.00;;;;;;5012596;28;20025;-77
2022/03/14 01:33:54;;;;;;;19.20;12.30;;;9.60;90.20;;;;;;4994733;28;20396;-76
2022/03/14 01:36:20;;;;;;;21.63;12.55;;;9.50;91.70;;;;;;4994740;28;20022;-76
2022/03/14 01:38:46;;;;;;;21.58;12.40;;;9.50;93.80;;;;;;4994670;28;20030;-75
2022/03/14 01:41:14;;;;;;;28.30;14.77;;;9.50;93.30;;;;;;5012428;28;20569;-75
2022/03/14 01:43:40;;;;;;;20.48;12.68;;;9.50;97.30;;;;;;4994354;28;20026;-76
2022/03/14 01:46:06;;;;;;;21.42;12.93;;;9.50;99.90;;;;;;5011742;28;20100;-76
2022/03/14 01:48:31;;;;;;;24.55;14.77;;;9.40;99.90;;;;;;5011902;28;20381;-76
2022/03/14 01:50:57;;;;;;;23.35;14.35;;;9.30;99.90;;;;;;5011785;28;20024;-76
2022/03/14 01:53:24;;;;;;;25.90;15.05;;;9.30;99.90;;;;;;5012304;28;20026;-76
2022/03/14 01:55:50;;;;;;;24.88;14.90;;;9.20;99.90;;;;;;5011963;28;20022;-78
2022/03/14 01:58:16;;;;;;;21.60;13.90;;;9.20;99.90;;;;;;5011754;28;20117;-76
2022/03/14 02:00:43;;;;;;;22.30;14.00;;;9.10;99.90;;;;;;5011848;28;20080;-75
2022/03/14 02:03:09;;;;;;;25.05;15.23;;;9.00;99.90;;;;;;4994310;28;20029;-77
2022/03/14 02:05:36;;;;;;;24.08;14.52;;;8.80;99.90;;;;;;4994115;28;20122;-77
2022/03/14 02:08:02;;;;;;;23.00;14.73;;;8.70;99.90;;;;;;4994570;28;20025;-76
2022/03/14 02:10:28;;;;;;;22.35;13.93;;;8.70;99.90;;;;;;5017596;28;20022;-76
2022/03/14 02:12:54;;;;;;;24.30;14.25;;;8.70;99.90;;;;;;5014132;28;20022;-76
2022/03/14 02:15:20;;;;;;;21.23;14.60;;;8.70;99.90;;;;;;5013066;28;20026;-75
2022/03/14 02:17:45;;;;;;;23.67;13.30;;;8.60;99.90;;;;;;4995813;28;20382;-76
2022/03/14 02:20:11;;;;;;;22.10;13.40;;;8.60;99.90;;;;;;5012413;28;20026;-76
2022/03/14 02:22:37;;;;;;;23.92;13.23;;;8.70;99.90;;;;;;5012742;28;20105;-76
2022/03/14 02:25:09;;;;;;;24.42;15.38;;;8.60;99.90;;;;;;4994365;28;20026;-78
2022/03/14 02:27:36;;;;;;;20.80;14.18;;;8.60;99.90;;;;;;4994169;28;20029;-76
2022/03/14 02:30:03;;;;;;;21.77;14.20;;;8.60;99.90;;;;;;5012393;28;20033;-79
2022/03/14 02:32:28;;;;;;;21.35;14.93;;;8.60;99.90;;;;;;5012218;28;20488;-77
2022/03/14 02:34:54;;;;;;;24.42;14.50;;;8.60;99.90;;;;;;5012423;28;20084;-77
2022/03/14 02:37:19;;;;;;;24.02;14.35;;;8.50;99.90;;;;;;5000254;28;20026;-76
2022/03/14 02:39:47;;;;;;;28.50;16.23;;;8.50;99.90;;;;;;5027427;28;20049;-77
2022/03/14 02:42:13;;;;;;;23.90;14.10;;;8.40;99.90;;;;;;5012619;28;20010;-77
2022/03/14 02:44:41;;;;;;;31.27;15.63;;;8.40;99.90;;;;;;5012483;28;20473;-77
2022/03/14 02:47:09;;;;;;;25.35;15.25;;;8.40;99.90;;;;;;5011541;28;20029;-75
2022/03/14 02:49:35;;;;;;;26.25;16.10;;;8.40;99.90;;;;;;5013251;28;20030;-76
2022/03/14 02:52:01;;;;;;;23.05;15.10;;;8.40;99.90;;;;;;4993954;28;20378;-76
2022/03/14 02:54:26;;;;;;;26.77;16.15;;;8.30;99.90;;;;;;5011783;28;20026;-77
2022/03/14 02:56:52;;;;;;;26.75;15.48;;;8.30;99.90;;;;;;5011799;28;20114;-76
2022/03/14 02:59:20;;;;;;;24.38;15.60;;;8.30;99.90;;;;;;5011065;28;20026;-76
2022/03/14 03:01:46;;;;;;;23.50;15.32;;;8.20;99.90;;;;;;4994070;28;20425;-76
2022/03/14 03:04:11;;;;;;;28.60;16.02;;;8.20;99.90;;;;;;5011111;28;20022;-77
2022/03/14 03:06:37;;;;;;;24.63;15.30;;;8.20;99.90;;;;;;5011367;28;20378;-76
2022/03/14 03:09:03;;;;;;;24.50;14.68;;;8.20;99.90;;;;;;5012682;28;20458;-78
2022/03/14 03:11:30;;;;;;;24.17;15.25;;;8.20;99.90;;;;;;5012102;28;20022;-77
2022/03/14 03:13:56;;;;;;;23.95;15.65;;;8.20;99.90;;;;;;5012027;28;20385;-78
2022/03/14 03:16:22;;;;;;;29.40;16.88;;;8.20;99.90;;;;;;5012121;28;20033;-77
2022/03/14 03:18:48;;;;;;;24.08;14.65;;;8.10;99.90;;;;;;5012126;28;20030;-75
2022/03/14 03:21:15;;;;;;;28.27;15.52;;;8.10;99.90;;;;;;5012113;28;20026;-77
2022/03/14 03:23:42;;;;;;;26.20;15.55;;;8.10;99.90;;;;;;5011751;28;20061;-77
2022/03/14 03:26:08;;;;;;;26.63;15.68;;;8.10;99.90;;;;;;5012064;28;20041;-77
2022/03/14 03:28:36;;;;;;;23.25;14.05;;;8.00;99.90;;;;;;5011548;28;20025;-79
2022/03/14 03:31:16;;;;;;;29.20;16.55;;;8.10;99.90;;;;;;4993958;28;20022;-77
2022/03/14 03:33:42;;;;;;;24.88;14.77;;;8.10;99.90;;;;;;4994105;28;20022;-76
2022/03/14 03:36:08;;;;;;;24.40;15.05;;;8.10;99.90;;;;;;5013457;28;20469;-78
2022/03/14 03:38:35;;;;;;;25.70;14.63;;;8.10;99.90;;;;;;5015985;28;20029;-79
2022/03/14 03:41:01;;;;;;;22.60;12.80;;;8.10;99.90;;;;;;5015721;28;20029;-77
2022/03/14 03:43:27;;;;;;;22.75;13.20;;;8.10;99.90;;;;;;5015098;28;20047;-77
2022/03/14 03:45:54;;;;;;;24.60;13.82;;;8.20;99.90;;;;;;5015263;28;20486;-78
2022/03/14 03:48:20;;;;;;;21.80;13.30;;;8.20;99.90;;;;;;5015249;28;20104;-78
2022/03/14 03:50:46;;;;;;;20.73;12.88;;;8.20;99.90;;;;;;5015805;28;20021;-76
2022/03/14 03:53:12;;;;;;;19.35;12.45;;;8.20;99.90;;;;;;4997133;28;20026;-75
2022/03/14 03:55:38;;;;;;;22.08;13.32;;;8.20;99.90;;;;;;4997996;28;20026;-77
2022/03/14 03:58:04;;;;;;;21.08;12.43;;;8.20;99.90;;;;;;4997455;28;20125;-77
2022/03/14 04:00:29;;;;;;;18.23;11.52;;;8.20;99.90;;;;;;4996869;28;20025;-78
2022/03/14 04:02:55;;;;;;;18.65;12.50;;;8.30;99.90;;;;;;4997289;28;20018;-79
2022/03/14 04:05:25;;;;;;;22.25;12.15;;;8.30;99.90;;;;;;4996822;28;20397;-76
2022/03/14 04:07:54;;;;;;;20.60;12.20;;;8.30;99.90;;;;;;4997094;28;20041;-77
2022/03/14 04:10:19;;;;;;;18.88;12.02;;;8.30;99.90;;;;;;5014360;28;20105;-77
2022/03/14 04:12:45;;;;;;;19.67;11.95;;;8.30;99.90;;;;;;4997099;28;20512;-78
2022/03/14 04:15:11;;;;;;;20.63;12.50;;;8.30;99.90;;;;;;5014139;28;20032;-78
2022/03/14 04:17:38;;;;;;;18.98;12.48;;;8.30;99.90;;;;;;5014301;28;20021;-77
2022/03/14 04:20:06;;;;;;;20.05;12.63;;;8.30;99.90;;;;;;4996234;28;20461;-77
2022/03/14 04:22:32;;;;;;;18.13;12.10;;;8.30;99.90;;;;;;5014024;28;20065;-77
2022/03/14 04:24:59;;;;;;;24.48;13.10;;;8.30;99.90;;;;;;4997723;28;20037;-78
2022/03/14 04:27:25;;;;;;;23.83;14.13;;;8.20;99.90;;;;;;4997038;28;20036;-78
2022/03/14 04:29:51;;;;;;;23.38;13.52;;;8.20;99.90;;;;;;4996220;28;20022;-78
2022/03/14 04:32:16;;;;;;;22.38;13.75;;;8.20;99.90;;;;;;5014781;28;20166;-80
2022/03/14 04:34:42;;;;;;;25.65;13.65;;;8.20;99.90;;;;;;5014265;28;20101;-78
2022/03/14 04:37:08;;;;;;;22.92;14.05;;;8.20;99.90;;;;;;4996620;28;20407;-78
2022/03/14 04:39:34;;;;;;;22.25;13.77;;;8.20;99.90;;;;;;5014969;28;20033;-77
2022/03/14 04:41:59;;;;;;;19.98;12.82;;;8.20;99.90;;;;;;4996673;28;20022;-79
2022/03/14 04:44:25;;;;;;;21.42;12.90;;;8.20;99.90;;;;;;5014184;28;20025;-78
2022/03/14 04:46:51;;;;;;;19.50;12.77;;;8.20;99.90;;;;;;4995878;28;20022;-77
2022/03/14 04:49:16;;;;;;;19.00;10.95;;;8.20;99.90;;;;;;4995389;28;20038;-78
2022/03/14 04:51:42;;;;;;;14.65;9.73;;;8.20;99.90;;;;;;4996144;28;20105;-77
2022/03/14 04:54:08;;;;;;;14.70;8.88;;;8.20;99.90;;;;;;4996153;28;20022;-76
2022/03/14 04:56:33;;;;;;;10.38;7.40;;;8.20;99.90;;;;;;5014292;28;20030;-77
2022/03/14 04:58:59;;;;;;;12.80;7.78;;;8.20;99.90;;;;;;5014198;28;20440;-78
2022/03/14 05:01:25;;;;;;;13.88;7.25;;;8.10;99.90;;;;;;4996578;28;20026;-78
2022/03/14 05:03:52;;;;;;;10.70;6.60;;;8.10;99.90;;;;;;5014828;28;20114;-77
2022/03/14 05:06:19;;;;;;;8.35;5.95;;;8.10;99.90;;;;;;5014568;28;20065;-77
2022/03/14 05:08:45;;;;;;;10.18;6.30;;;8.10;99.90;;;;;;5014283;28;20030;-76
2022/03/14 05:11:13;;;;;;;7.78;5.18;;;8.10;99.90;;;;;;5013856;28;20544;-77
2022/03/14 05:13:39;;;;;;;7.63;5.10;;;8.10;99.90;;;;;;4996827;28;20084;-79
2022/03/14 05:16:05;;;;;;;7.90;4.95;;;8.10;99.90;;;;;;5013302;28;20025;-78
2022/03/14 05:18:31;;;;;;;7.10;4.53;;;8.00;99.90;;;;;;5013162;28;20022;-77
2022/03/14 05:20:57;;;;;;;8.30;5.47;;;8.00;99.90;;;;;;5013121;28;20062;-78
2022/03/14 05:23:23;;;;;;;8.27;5.13;;;8.00;99.90;;;;;;4995690;28;20524;-78
2022/03/14 05:25:49;;;;;;;10.25;4.78;;;8.00;99.90;;;;;;5013003;28;20041;-77
2022/03/14 05:28:14;;;;;;;9.13;5.80;;;8.00;99.90;;;;;;5013247;28;20033;-77
2022/03/14 05:30:40;;;;;;;7.47;5.38;;;8.00;99.90;;;;;;5013728;28;20535;-77
2022/03/14 05:33:06;;;;;;;9.23;5.28;;;8.00;99.90;;;;;;4995346;28;20489;-78
2022/03/14 05:35:32;;;;;;;8.35;5.68;;;8.00;99.90;;;;;;4995054;28;20109;-77
2022/03/14 05:37:57;;;;;;;8.63;5.63;;;8.00;99.90;;;;;;5001954;28;20036;-77
2022/03/14 05:40:23;;;;;;;9.48;5.38;;;8.00;99.90;;;;;;5017106;28;20026;-78
2022/03/14 05:42:50;;;;;;;12.50;5.38;;;8.00;99.90;;;;;;4995531;28;20053;-77
2022/03/14 05:45:19;;;;;;;10.43;5.65;;;8.00;99.90;;;;;;5013051;28;20025;-77
2022/03/14 05:47:46;;;;;;;11.98;5.40;;;7.90;99.90;;;;;;5013288;28;20117;-77
2022/03/14 05:50:12;;;;;;;9.95;5.80;;;7.90;99.90;;;;;;5013685;28;20395;-77
2022/03/14 05:52:38;;;;;;;7.82;4.90;;;7.90;99.90;;;;;;5013922;28;20033;-76
2022/03/14 05:55:08;;;;;;;8.00;4.57;;;7.90;99.90;;;;;;5014029;28;20473;-79
2022/03/14 05:57:35;;;;;;;9.85;5.05;;;7.90;99.90;;;;;;5000194;28;20030;-77
2022/03/14 06:00:01;;;;;;;6.40;4.45;;;7.90;99.90;;;;;;4995173;28;20053;-76
2022/03/14 06:02:27;;;;;;;7.50;4.55;;;7.90;99.90;;;;;;5013848;28;20159;-79
2022/03/14 06:04:53;;;;;;;9.77;4.78;;;7.90;99.90;;;;;;5033085;22;20042;-80
2022/03/14 06:07:21;;;;;;;8.43;4.82;;;7.90;99.90;;;;;;4993821;28;20061;-79
2022/03/14 06:09:49;;;;;;;7.90;4.82;;;7.90;99.90;;;;;;4975527;28;20064;-80
2022/03/14 06:12:29;;;;;;;9.77;5.43;;;7.90;99.90;;;;;;4976112;28;20037;-78
2022/03/14 06:15:00;;;;;;;12.15;5.00;;;7.90;99.90;;;;;;4993637;28;20030;-80
2022/03/14 06:17:26;;;;;;;8.70;5.10;;;7.90;99.90;;;;;;4975904;28;20026;-78
2022/03/14 06:19:52;;;;;;;9.38;5.30;;;7.90;99.90;;;;;;4993435;28;20085;-79
2022/03/14 06:22:23;;;;;;;9.88;5.43;;;7.90;99.90;;;;;;4976252;28;20030;-77
2022/03/14 06:24:49;;;;;;;9.07;5.15;;;7.90;99.90;;;;;;4993981;28;20037;-79
2022/03/14 06:27:15;;;;;;;7.13;5.28;;;7.90;99.90;;;;;;4994193;28;20049;-79
2022/03/14 06:29:41;;;;;;;9.63;5.30;;;8.00;99.90;;;;;;4976623;28;20040;-79
2022/03/14 06:32:07;;;;;;;6.25;5.07;;;8.00;99.90;;;;;;4994179;28;20045;-78
2022/03/14 06:34:33;;;;;;;9.43;5.47;;;8.00;99.90;;;;;;4976188;28;20494;-78
2022/03/14 06:36:58;;;;;;;10.07;5.40;;;8.00;99.90;;;;;;4993565;28;20457;-77
2022/03/14 06:39:24;;;;;;;10.60;5.95;;;8.00;99.90;;;;;;4994329;28;20069;-79
2022/03/14 06:41:50;;;;;;;11.40;6.88;;;8.10;99.90;;;;;;4976269;28;20026;-79
2022/03/14 06:44:17;;;;;;;9.02;6.03;;;8.10;99.90;;;;;;5003304;28;20065;-80
2022/03/14 06:46:43;;;;;;;11.73;7.07;;;8.10;99.90;;;;;;5018942;28;20022;-81
2022/03/14 06:49:10;;;;;;;14.32;7.25;;;8.10;99.90;;;;;;5019879;28;20080;-79
2022/03/14 06:51:37;;;;;;;10.27;7.30;;;8.10;99.90;;;;;;5003261;28;20516;-78
2022/03/14 06:54:02;;;;;;;10.15;8.20;;;8.20;99.90;;;;;;5019067;28;20029;-79
2022/03/14 06:56:28;;;;;;;14.38;8.93;;;8.20;99.90;;;;;;5000579;28;20022;-79
2022/03/14 06:58:53;;;;;;;13.73;9.25;;;8.20;99.90;;;;;;5018996;28;20033;-77
2022/03/14 07:01:19;;;;;;;15.77;9.52;;;8.20;99.90;;;;;;5016849;28;20057;-76
2022/03/14 07:03:44;;;;;;;13.63;9.90;;;8.30;99.90;;;;;;5001725;28;20032;-82
2022/03/14 07:06:10;;;;;;;12.90;8.38;;;8.30;99.90;;;;;;5005759;28;20084;-79
2022/03/14 07:08:36;;;;;;;15.98;10.00;;;8.30;99.90;;;;;;4999526;28;20030;-80
2022/03/14 07:11:01;;;;;;;14.23;11.15;;;8.30;99.90;;;;;;5016141;28;20022;-78
2022/03/14 07:13:27;;;;;;;18.15;11.13;;;8.30;99.90;;;;;;5018171;28;20026;-78
2022/03/14 07:15:53;;;;;;;17.95;11.02;;;8.40;99.90;;;;;;5017981;28;20025;-78
2022/03/14 07:18:19;;;;;;;20.30;11.57;;;8.30;99.90;;;;;;5017992;28;20106;-81
2022/03/14 07:20:45;;;;;;;17.45;11.93;;;8.40;99.90;;;;;;5000169;28;20022;-79
2022/03/14 07:23:11;;;;;;;15.85;11.82;;;8.40;99.90;;;;;;5002388;28;20022;-79
2022/03/14 07:25:40;;;;;;;15.68;11.65;;;8.40;99.90;;;;;;5020258;28;20048;-79
2022/03/14 07:28:08;;;;;;;17.00;10.98;;;8.40;99.90;;;;;;5019602;28;20030;-78
2022/03/14 07:30:38;;;;;;;17.42;12.30;;;8.40;99.90;;;;;;5021804;28;20474;-80
2022/03/14 07:33:05;;;;;;;13.77;10.93;;;8.40;99.90;;;;;;5024035;28;20018;-81
2022/03/14 07:35:31;;;;;;;18.17;10.88;;;8.40;99.90;;;;;;5018138;28;20070;-79
2022/03/14 07:37:57;;;;;;;16.05;11.82;;;8.40;99.90;;;;;;5016800;28;20101;-79
2022/03/14 07:40:23;;;;;;;17.75;11.73;;;8.30;99.90;;;;;;4999729;28;20516;-76
2022/03/14 07:42:51;;;;;;;18.25;12.73;;;8.30;99.90;;;;;;4999031;28;20029;-79
2022/03/14 07:45:20;;;;;;;14.85;11.10;;;8.40;99.90;;;;;;5016432;28;20022;-80
2022/03/14 07:47:46;;;;;;;15.65;11.95;;;8.40;99.90;;;;;;5015409;28;20528;-79
2022/03/14 07:50:14;;;;;;;17.52;12.25;;;8.40;99.90;;;;;;4997835;28;20306;-78
2022/03/14 07:52:40;;;;;;;18.27;12.27;;;8.40;99.90;;;;;;4998833;28;20101;-79
2022/03/14 07:55:09;;;;;;;18.95;11.63;;;8.40;99.90;;;;;;5022830;28;20033;-82
2022/03/14 07:57:37;;;;;;;16.73;10.70;;;8.40;99.90;;;;;;5010187;28;20022;-80
2022/03/14 08:00:08;;;;;;;15.65;10.60;;;8.50;99.90;;;;;;5003688;28;20413;-80
2022/03/14 08:02:33;;;;;;;16.20;10.57;;;8.50;99.90;;;;;;4999451;28;20034;-80
2022/03/14 08:04:59;;;;;;;15.00;10.65;;;8.50;99.90;;;;;;5015197;28;20030;-79
2022/03/14 08:07:28;;;;;;;13.60;9.25;;;8.60;99.90;;;;;;5015206;28;20022;-80
2022/03/14 08:09:54;;;;;;;9.65;8.50;;;8.60;99.90;;;;;;5014808;28;20028;-81
2022/03/14 08:12:21;;;;;;;13.38;9.55;;;8.70;99.90;;;;;;4999182;28;20057;-80
2022/03/14 08:14:47;;;;;;;11.98;8.32;;;8.70;99.90;;;;;;5016122;28;20018;-79
2022/03/14 08:17:13;;;;;;;11.45;7.95;;;8.80;99.90;;;;;;5015699;28;20496;-79
2022/03/14 08:19:39;;;;;;;13.10;7.85;;;8.80;99.90;;;;;;4998467;28;20026;-81
2022/03/14 08:22:05;;;;;;;10.30;7.72;;;8.90;99.90;;;;;;4997718;28;20111;-80
2022/03/14 08:24:31;;;;;;;11.05;7.50;;;8.90;99.90;;;;;;4997964;28;20118;-79
2022/03/14 08:26:56;;;;;;;10.43;7.55;;;9.00;99.90;;;;;;5014760;28;20453;-80
2022/03/14 08:29:22;;;;;;;11.88;7.57;;;9.00;99.90;;;;;;4997131;28;20022;-78
2022/03/14 08:31:48;;;;;;;9.35;6.72;;;9.00;99.90;;;;;;4996708;28;20022;-78
2022/03/14 08:34:14;;;;;;;11.60;6.60;;;9.00;99.90;;;;;;4996543;28;20509;-79
2022/03/14 08:36:42;;;;;;;12.52;6.72;;;9.00;99.90;;;;;;5013770;28;20106;-78
2022/03/14 08:39:09;;;;;;;11.10;6.50;;;9.00;99.90;;;;;;5016408;28;20029;-79
2022/03/14 08:41:36;;;;;;;10.52;6.90;;;9.00;99.90;;;;;;5018890;28;20067;-80
2022/03/14 08:44:06;;;;;;;12.98;7.95;;;9.00;99.90;;;;;;4997503;28;20392;-79
2022/03/14 08:46:32;;;;;;;14.77;7.10;;;9.00;99.90;;;;;;5013816;28;20050;-79
2022/03/14 08:48:57;;;;;;;11.02;6.43;;;9.10;99.90;;;;;;5015117;28;20049;-80
2022/03/14 08:51:24;;;;;;;12.95;6.97;;;9.10;99.90;;;;;;5020412;28;20473;-80
2022/03/14 08:53:49;;;;;;;11.85;6.75;;;9.10;99.90;;;;;;4998527;28;20030;-80
2022/03/14 08:56:15;;;;;;;13.40;7.07;;;9.10;99.90;;;;;;4995900;28;20025;-79
2022/03/14 08:58:41;;;;;;;8.55;6.07;;;9.20;99.90;;;;;;5000628;28;20070;-81
2022/03/14 09:01:07;;;;;;;13.07;7.38;;;9.30;99.90;;;;;;5018809;28;20037;-82
2022/03/14 09:03:32;;;;;;;11.85;6.28;;;9.40;99.90;;;;;;5014760;28;20493;-79
2022/03/14 09:05:58;;;;;;;8.20;5.90;;;9.50;99.90;;;;;;5014222;28;20034;-79
2022/03/14 09:08:25;;;;;;;11.38;6.63;;;9.50;99.90;;;;;;5014258;28;20034;-78
2022/03/14 09:10:51;;;;;;;12.95;6.93;;;9.60;99.90;;;;;;5015283;28;20026;-79
2022/03/14 09:13:18;;;;;;;10.52;6.18;;;9.70;99.90;;;;;;4997845;28;20022;-80
2022/03/14 09:15:43;;;;;;;14.85;7.10;;;9.70;99.90;;;;;;4997815;28;20500;-80
2022/03/14 09:18:09;;;;;;;14.55;7.18;;;9.80;99.90;;;;;;4997596;28;20022;-79
2022/03/14 09:20:38;;;;;;;12.65;6.78;;;9.90;99.90;;;;;;5015808;28;20037;-77
2022/03/14 09:23:04;;;;;;;11.70;6.90;;;9.90;99.90;;;;;;4998437;28;20038;-81
2022/03/14 09:25:30;;;;;;;14.77;7.88;;;9.90;99.90;;;;;;5015675;28;20516;-80
2022/03/14 09:27:55;;;;;;;13.70;6.40;;;10.00;99.90;;;;;;4997848;28;20030;-80
2022/03/14 09:30:22;;;;;;;12.38;7.18;;;10.00;99.90;;;;;;4998274;28;20052;-82
2022/03/14 09:32:48;;;;;;;11.25;6.50;;;10.00;99.90;;;;;;5015720;28;20033;-81
2022/03/14 09:35:14;;;;;;;15.93;7.22;;;10.00;99.90;;;;;;5015135;28;20026;-78
2022/03/14 09:37:41;;;;;;;14.20;6.53;;;10.00;99.90;;;;;;4997857;28;20452;-78
2022/03/14 09:40:10;;;;;;;10.15;7.28;;;10.00;99.90;;;;;;4997938;28;20064;-80
2022/03/14 09:42:37;;;;;;;14.35;8.25;;;10.00;99.90;;;;;;5015631;28;20287;-79
2022/03/14 09:45:04;;;;;;;13.00;7.25;;;10.00;99.90;;;;;;5000026;28;20030;-78
2022/03/14 09:47:35;;;;;;;12.02;7.10;;;10.00;99.90;;;;;;5014342;28;20033;-79
2022/03/14 09:50:08;;;;;;;12.23;6.38;;;10.10;99.90;;;;;;4996828;28;20400;-79
2022/03/14 09:52:37;;;;;;;9.20;6.00;;;10.10;99.90;;;;;;5001639;28;20521;-80
2022/03/14 09:55:06;;;;;;;9.68;5.85;;;10.20;99.90;;;;;;5019918;28;20056;-78
2022/03/14 09:57:36;;;;;;;13.07;6.13;;;10.20;99.90;;;;;;5026427;28;20032;-81
2022/03/14 10:00:03;;;;;;;11.18;6.15;;;10.30;99.90;;;;;;5024240;28;20045;-79
2022/03/14 10:02:29;;;;;;;14.15;6.78;;;10.30;99.90;;;;;;5019973;28;20026;-77
2022/03/14 10:04:55;;;;;;;14.23;7.70;;;10.40;99.90;;;;;;5020359;28;20137;-78
2022/03/14 10:07:21;;;;;;;14.27;7.70;;;10.50;99.90;;;;;;5019904;28;20053;-79
2022/03/14 10:09:47;;;;;;;14.48;8.60;;;10.70;99.90;;;;;;5001941;28;20057;-77
2022/03/14 10:12:14;;;;;;;15.73;7.90;;;10.80;99.90;;;;;;5019575;28;20036;-80
2022/03/14 10:14:40;;;;;;;12.48;7.30;;;11.00;99.90;;;;;;5003675;28;20030;-80
2022/03/14 10:17:06;;;;;;;18.60;9.70;;;11.20;99.90;;;;;;5003178;28;20022;-80
2022/03/14 10:19:34;;;;;;;17.17;8.65;;;11.20;99.90;;;;;;5018325;28;20026;-79
2022/03/14 10:22:14;;;;;;;12.98;8.18;;;11.20;99.90;;;;;;5025188;28;20018;-79
2022/03/14 10:24:40;;;;;;;12.73;7.85;;;11.20;99.90;;;;;;5023742;28;20069;-78
2022/03/14 10:27:07;;;;;;;17.67;8.93;;;11.20;99.90;;;;;;5005621;28;20040;-80
2022/03/14 10:29:36;;;;;;;11.88;8.13;;;11.20;99.90;;;;;;5024510;28;20193;-81
2022/03/14 10:32:02;;;;;;;15.85;8.65;;;11.20;99.90;;;;;;5005835;28;20022;-79
2022/03/14 10:34:28;;;;;;;22.70;9.98;;;11.20;99.90;;;;;;5015257;28;20040;-79
2022/03/14 10:36:57;;;;;;;10.80;7.20;;;11.40;99.90;;;;;;5016040;28;20490;-78
2022/03/14 10:39:28;;;;;;;11.95;6.30;;;11.40;99.90;;;;;;5022863;28;20478;-81
2022/03/14 10:42:02;;;;;;;11.52;5.75;;;11.30;99.90;;;;;;5006191;28;20021;-80
2022/03/14 10:44:28;;;;;;;11.10;5.47;;;11.20;99.90;;;;;;5015141;28;20057;-80
2022/03/14 10:46:58;;;;;;;9.10;5.13;;;11.20;99.90;;;;;;5016666;28;20026;-80
2022/03/14 10:49:32;;;;;;;9.00;4.45;;;11.20;99.90;;;;;;5016769;28;20092;-82
2022/03/14 10:52:13;;;;;;;10.95;4.57;;;11.10;99.90;;;;;;5005726;28;20057;-81
2022/03/14 10:54:40;;;;;;;8.00;4.60;;;10.90;99.90;;;;;;5017727;28;20546;-80
2022/03/14 10:57:25;;;;;;;12.85;5.03;;;10.80;99.90;;;;;;5016974;28;20034;-78
2022/03/14 10:59:52;;;;;;;9.68;4.50;;;10.70;99.90;;;;;;4998623;28;20113;-78
2022/03/14 11:02:21;;;;;;;9.18;5.25;;;10.70;99.90;;;;;;4998756;28;20033;-77
2022/03/14 11:04:54;;;;;;;7.25;4.43;;;10.50;99.90;;;;;;5017879;28;20029;-79
2022/03/14 11:07:25;;;;;;;10.68;4.28;;;10.50;99.90;;;;;;4999621;28;20168;-79
2022/03/14 11:09:53;;;;;;;9.75;5.25;;;10.40;99.90;;;;;;4998975;28;20033;-77
2022/03/14 11:12:20;;;;;;;10.85;4.78;;;10.40;99.90;;;;;;5015993;28;20029;-79
2022/03/14 11:14:54;;;;;;;9.63;5.30;;;10.50;99.90;;;;;;5016696;28;20072;-76
2022/03/14 11:17:25;;;;;;;11.07;5.50;;;10.50;99.90;;;;;;5016306;28;20036;-78
2022/03/14 11:19:52;;;;;;;9.55;5.35;;;10.60;99.90;;;;;;4999605;28;20022;-77
2022/03/14 11:22:19;;;;;;;11.13;4.85;;;10.70;99.90;;;;;;5020983;28;20026;-77
2022/03/14 11:24:50;;;;;;;10.93;5.07;;;10.80;99.90;;;;;;5002670;28;20172;-78
2022/03/14 11:27:37;;;;;;;8.15;4.60;;;11.00;99.90;;;;;;5020474;28;20113;-78
2022/03/14 11:30:02;;;;;;;;;;;11.20;99.90;;;;;;5003606;28;20057;-77
2022/03/14 11:32:28;;;;;;;12.03;5.10;;;11.20;99.90;;;;;;5020048;28;19905;-77
2022/03/14 11:34:55;;;;;;;7.25;4.38;;;11.40;99.90;;;;;;5021608;28;20411;-77
2022/03/14 11:37:21;;;;;;;9.55;4.85;;;11.50;99.90;;;;;;5018829;28;20540;-77
2022/03/14 11:39:48;;;;;;;10.55;4.93;;;11.40;99.90;;;;;;5020752;28;20038;-77
2022/03/14 11:42:15;;;;;;;9.45;5.03;;;11.40;99.90;;;;;;5021921;28;20036;-77
2022/03/14 11:44:43;;;;;;;8.48;4.38;;;11.30;99.90;;;;;;5003775;28;20428;-78
2022/03/14 11:47:11;;;;;;;13.95;4.95;;;11.40;99.90;;;;;;5005798;28;20088;-77
2022/03/14 11:49:37;;;;;;;12.05;4.13;;;11.40;99.90;;;;;;5026901;28;20093;-77
2022/03/14 11:52:06;;;;;;;13.55;5.50;;;11.50;99.90;;;;;;5023588;28;20049;-79
2022/03/14 11:54:38;;;;;;;8.85;4.60;;;11.70;99.90;;;;;;5003682;28;20053;-76
2022/03/14 11:57:03;;;;;;;9.00;4.40;;;11.80;99.90;;;;;;5008771;28;20085;-77
2022/03/14 11:59:31;;;;;;;12.60;5.43;;;12.00;99.90;;;;;;5008916;28;20302;-78
2022/03/14 12:02:00;;;;;;;10.45;4.85;;;12.20;99.90;;;;;;5021174;28;20026;-79
2022/03/14 12:04:27;;;;;;;8.27;4.93;;;12.70;99.90;;;;;;5002552;28;20034;-77
2022/03/14 12:09:26;;;;;;;9.48;4.57;;;13.00;99.90;;;;;;5037117;28;20056;-76
2022/03/14 12:12:13;;;;;;;9.57;4.90;;;13.30;99.90;;;;;;5036798;28;20025;-77
2022/03/14 12:14:50;;;;;;;8.73;4.68;;;13.50;99.90;;;;;;5019267;28;20485;-76
2022/03/14 12:17:16;;;;;;;12.43;4.78;;;13.60;99.90;;;;;;5016003;28;20474;-75
2022/03/14 12:19:46;;;;;;;12.77;4.97;;;14.00;99.90;;;;;;5015217;28;20029;-75
2022/03/14 12:22:14;;;;;;;9.68;5.13;;;14.30;99.90;;;;;;5016549;28;20057;-77
2022/03/14 12:24:39;;;;;;;6.97;4.00;;;14.20;99.90;;;;;;5016278;28;20026;-75
2022/03/14 12:27:15;;;;;;;12.30;4.88;;;13.90;99.90;;;;;;5017079;28;20117;-76
2022/03/14 12:29:41;;;;;;;13.30;5.55;;;13.80;99.90;;;;;;5016312;28;20098;-76
2022/03/14 12:32:39;;;;;;;10.35;5.30;;;13.50;99.90;;;;;;5018242;28;20026;-76
2022/03/14 12:35:22;;;;;;;11.40;6.30;;;13.40;99.90;;;;;;5017628;28;20117;-76
2022/03/14 12:38:08;;;;;;;9.40;6.20;;;13.40;99.90;;;;;;5015125;28;20026;-77
2022/03/14 12:40:34;;;;;;;13.63;6.90;;;13.40;99.90;;;;;;5017201;28;20057;-76
2022/03/14 12:43:22;;;;;;;14.40;7.65;;;13.40;99.90;;;;;;5016509;28;20052;-76